Terminal Aerodrome Forecast
Issued by NWS

Current Version | Previous Version | Text Only | Print | Product List | Glossary Off
Versions: 1 2 3 4 5 6 7 8 9 10 11 12 13 14 15 16 17 18 19 20

818
FTUS41 KPBZ 141711 AAA
TAFHLG
TAF AMD
KHLG 141711Z 1417/1512 00000KT 1 1/2SM BR FEW010 OVC016
     FM142200 30005KT 5SM BR OVC010
     FM150100 30005KT P6SM OVC020
     FM150500 31005KT P6SM BKN040=

USA.gov is the U.S. government's official web portal to all federal, state and local government web resources and services.